Time;durP1;ratioP1;P1;durP2;ratioP2;P2;SDS_P1;SDS_P2;PMS_P1;PMS_P2;Temp;Humidity;BMP_temperature;BMP_pressure;BME280_temperature;BME280_humidity;BME280_pressure;Samples;Min_cycle;Max_cycle;Signal;HPM_P1;HPM_P2
2021/04/09 00:01:54;;;;;;;23.13;13.27;;;;;;;;;;4985877;28;38110;-76
2021/04/09 00:04:21;;;;;;;26.33;13.97;;;;;;;;;;4982751;28;37869;-76
2021/04/09 00:06:47;;;;;;;24.17;13.97;;;;;;;;;;4976621;28;38760;-75
2021/04/09 00:09:14;;;;;;;20.93;12.83;;;;;;;;;;4985224;28;39041;-76
2021/04/09 00:11:41;;;;;;;19.57;13.40;;;;;;;;;;4987062;28;37969;-76
2021/04/09 00:14:08;;;;;;;23.40;12.97;;;;;;;;;;4998797;28;37511;-76
2021/04/09 00:16:34;;;;;;;21.87;13.23;;;;;;;;;;4984723;28;39254;-76
2021/04/09 00:19:01;;;;;;;21.37;13.57;;;;;;;;;;4982250;28;38571;-76
2021/04/09 00:21:28;;;;;;;21.53;13.17;;;;;;;;;;4980693;28;46910;-76
2021/04/09 00:23:54;;;;;;;20.87;13.57;;;;;;;;;;4999534;28;38922;-76
2021/04/09 00:26:20;;;;;;;21.63;14.07;;;;;;;;;;4995416;28;40513;-76
2021/04/09 00:28:47;;;;;;;21.20;12.90;;;;;;;;;;4985810;28;38676;-76
2021/04/09 00:31:13;;;;;;;18.97;12.70;;;;;;;;;;4977235;28;37840;-76
2021/04/09 00:33:39;;;;;;;18.87;12.17;;;;;;;;;;4980141;28;37856;-76
2021/04/09 00:36:06;;;;;;;19.03;13.63;;;;;;;;;;5000582;28;39134;-76
2021/04/09 00:38:32;;;;;;;23.93;13.37;;;;;;;;;;4982579;28;38540;-76
2021/04/09 00:40:59;;;;;;;19.60;12.70;;;;;;;;;;4982351;28;37473;-76
2021/04/09 00:43:25;;;;;;;17.87;12.30;;;;;;;;;;4982043;28;38171;-76
2021/04/09 00:45:51;;;;;;;18.73;12.80;;;;;;;;;;4987440;28;38087;-76
2021/04/09 00:48:18;;;;;;;18.57;12.30;;;;;;;;;;4985341;28;38157;-76
2021/04/09 00:50:44;;;;;;;20.43;12.23;;;;;;;;;;4984220;28;38381;-77
2021/04/09 00:53:13;;;;;;;20.67;12.10;;;;;;;;;;4974358;28;37315;-77
2021/04/09 00:55:40;;;;;;;18.33;10.97;;;;;;;;;;4980444;28;38998;-76
2021/04/09 00:58:07;;;;;;;17.23;11.37;;;;;;;;;;5002327;28;39534;-76
2021/04/09 01:00:34;;;;;;;21.07;12.20;;;;;;;;;;4999095;28;38770;-76
2021/04/09 01:03:01;;;;;;;15.53;12.17;;;;;;;;;;4984650;28;37894;-76
2021/04/09 01:05:27;;;;;;;16.87;11.23;;;;;;;;;;5000187;28;39924;-76
2021/04/09 01:07:54;;;;;;;15.83;11.67;;;;;;;;;;4985088;28;39751;-76
2021/04/09 01:10:21;;;;;;;18.17;11.70;;;;;;;;;;4980433;28;38003;-76
2021/04/09 01:12:48;;;;;;;17.20;11.93;;;;;;;;;;4999030;28;37408;-76
2021/04/09 01:15:16;;;;;;;20.93;12.30;;;;;;;;;;4980629;28;39618;-76
2021/04/09 01:17:58;;;;;;;17.97;12.90;;;;;;;;;;4990555;28;39376;-76
2021/04/09 01:20:39;;;;;;;16.53;12.67;;;;;;;;;;4982083;28;38449;-76
2021/04/09 01:23:12;;;;;;;17.83;12.40;;;;;;;;;;4997497;28;37795;-76
2021/04/09 01:25:53;;;;;;;15.88;11.05;;;;;;;;;;4976076;28;39057;-76
2021/04/09 01:28:25;;;;;;;16.03;11.63;;;;;;;;;;4981336;28;38605;-76
2021/04/09 01:31:09;;;;;;;17.77;12.30;;;;;;;;;;4976619;28;38354;-78
2021/04/09 01:33:39;;;;;;;20.17;12.70;;;;;;;;;;4998476;28;47180;-76
2021/04/09 01:36:25;;;;;;;18.70;12.83;;;;;;;;;;4982055;28;37672;-76
2021/04/09 01:38:57;;;;;;;19.00;12.57;;;;;;;;;;4982024;28;38142;-76
2021/04/09 01:41:24;;;;;;;15.18;11.27;;;;;;;;;;4986221;28;38734;-78
2021/04/09 01:43:52;;;;;;;17.73;11.77;;;;;;;;;;4983034;28;37556;-76
2021/04/09 01:46:19;;;;;;;18.33;11.80;;;;;;;;;;4982699;28;39801;-76
2021/04/09 01:48:46;;;;;;;18.27;11.50;;;;;;;;;;4997708;28;40670;-76
2021/04/09 01:51:16;;;;;;;17.63;11.67;;;;;;;;;;4980171;28;37977;-76
2021/04/09 01:53:44;;;;;;;17.23;10.27;;;;;;;;;;4982309;28;36832;-76
2021/04/09 01:56:11;;;;;;;13.00;10.13;;;;;;;;;;4980323;28;39815;-76
2021/04/09 01:58:38;;;;;;;15.70;10.90;;;;;;;;;;4984368;28;39604;-76
2021/04/09 02:01:08;;;;;;;16.33;10.33;;;;;;;;;;4997057;28;40206;-75
2021/04/09 02:03:34;;;;;;;16.60;9.53;;;;;;;;;;4985294;28;38947;-75
2021/04/09 02:06:01;;;;;;;14.83;9.67;;;;;;;;;;4999570;28;39777;-78
2021/04/09 02:08:29;;;;;;;18.47;9.23;;;;;;;;;;4999334;28;46963;-76
2021/04/09 02:10:57;;;;;;;12.13;9.47;;;;;;;;;;4980265;28;38189;-77
2021/04/09 02:13:24;;;;;;;20.07;10.17;;;;;;;;;;4978724;28;38448;-78
2021/04/09 02:15:53;;;;;;;15.67;9.97;;;;;;;;;;4977686;28;39044;-78
2021/04/09 02:18:20;;;;;;;16.00;9.90;;;;;;;;;;4985214;28;39235;-78
2021/04/09 02:20:46;;;;;;;14.00;10.03;;;;;;;;;;4985095;28;38706;-78
2021/04/09 02:23:13;;;;;;;13.93;9.60;;;;;;;;;;4994771;28;37781;-78
2021/04/09 02:25:39;;;;;;;15.90;9.57;;;;;;;;;;4982970;28;41013;-78
2021/04/09 02:28:06;;;;;;;13.17;9.70;;;;;;;;;;4977743;28;39283;-78
2021/04/09 02:30:33;;;;;;;13.97;9.67;;;;;;;;;;4978128;28;38763;-78
2021/04/09 02:32:59;;;;;;;16.10;10.27;;;;;;;;;;4982373;28;35746;-77
2021/04/09 02:35:26;;;;;;;17.07;10.27;;;;;;;;;;4983237;28;39696;-78
2021/04/09 02:37:53;;;;;;;15.47;9.73;;;;;;;;;;4982991;28;38963;-77
2021/04/09 02:40:27;;;;;;;16.37;9.73;;;;;;;;;;4981104;28;38352;-78
2021/04/09 02:42:54;;;;;;;14.13;10.27;;;;;;;;;;4995935;28;38448;-78
2021/04/09 02:45:22;;;;;;;15.30;9.40;;;;;;;;;;4975541;28;38441;-78
2021/04/09 02:47:49;;;;;;;18.80;10.43;;;;;;;;;;4979066;28;39800;-78
2021/04/09 02:50:20;;;;;;;19.40;10.40;;;;;;;;;;4978341;28;38986;-78
2021/04/09 02:52:50;;;;;;;14.40;9.33;;;;;;;;;;4971475;28;37554;-76
2021/04/09 02:55:19;;;;;;;13.60;9.20;;;;;;;;;;4979636;28;39180;-76
2021/04/09 02:57:47;;;;;;;15.00;9.33;;;;;;;;;;4997065;28;38393;-76
2021/04/09 03:00:14;;;;;;;13.77;9.13;;;;;;;;;;4978740;28;39108;-77
2021/04/09 03:02:40;;;;;;;16.63;8.67;;;;;;;;;;4984150;28;37653;-77
2021/04/09 03:05:09;;;;;;;13.17;8.70;;;;;;;;;;4981041;28;38242;-76
2021/04/09 03:07:37;;;;;;;13.67;9.20;;;;;;;;;;4996403;28;38721;-77
2021/04/09 03:10:05;;;;;;;14.30;9.00;;;;;;;;;;4980190;28;38193;-76
2021/04/09 03:12:32;;;;;;;15.07;9.10;;;;;;;;;;4997891;28;37804;-77
2021/04/09 03:14:58;;;;;;;15.73;8.73;;;;;;;;;;4993545;28;39895;-77
2021/04/09 03:17:29;;;;;;;15.30;9.17;;;;;;;;;;4990928;28;39884;-76
2021/04/09 03:19:55;;;;;;;12.17;8.73;;;;;;;;;;4997577;28;39831;-76
2021/04/09 03:22:22;;;;;;;11.37;8.63;;;;;;;;;;4997572;28;36941;-77
2021/04/09 03:24:48;;;;;;;15.03;8.67;;;;;;;;;;4999433;28;39333;-77
2021/04/09 03:27:15;;;;;;;14.70;8.87;;;;;;;;;;4981951;28;38597;-77
2021/04/09 03:29:44;;;;;;;11.60;8.47;;;;;;;;;;4985248;28;36414;-78
2021/04/09 03:32:15;;;;;;;14.30;10.00;;;;;;;;;;4998855;28;36982;-77
2021/04/09 03:34:42;;;;;;;14.67;9.87;;;;;;;;;;4999233;28;39663;-77
2021/04/09 03:37:08;;;;;;;17.37;10.10;;;;;;;;;;4997777;28;41057;-76
2021/04/09 03:39:35;;;;;;;16.03;8.93;;;;;;;;;;4985204;28;38334;-77
2021/04/09 03:42:02;;;;;;;19.53;10.53;;;;;;;;;;4983560;28;37485;-76
2021/04/09 03:44:28;;;;;;;14.20;9.43;;;;;;;;;;4987565;28;46465;-76
2021/04/09 03:46:55;;;;;;;16.37;10.37;;;;;;;;;;4983253;28;38052;-76
2021/04/09 03:49:21;;;;;;;18.17;10.60;;;;;;;;;;4997897;28;39775;-76
2021/04/09 03:51:48;;;;;;;17.33;10.10;;;;;;;;;;4983141;28;36877;-76
2021/04/09 03:54:14;;;;;;;16.37;10.17;;;;;;;;;;4983450;28;40592;-76
2021/04/09 03:56:41;;;;;;;14.30;9.43;;;;;;;;;;4984460;28;39271;-76
2021/04/09 03:59:07;;;;;;;15.33;10.27;;;;;;;;;;5003542;28;39711;-77
2021/04/09 04:01:34;;;;;;;14.33;10.37;;;;;;;;;;4983006;28;37657;-76
2021/04/09 04:04:00;;;;;;;19.03;10.33;;;;;;;;;;4996651;28;39625;-76
2021/04/09 04:06:27;;;;;;;22.50;10.70;;;;;;;;;;5000659;28;38657;-76
2021/04/09 04:08:53;;;;;;;16.00;10.20;;;;;;;;;;4996945;28;39298;-76
2021/04/09 04:11:19;;;;;;;19.03;10.63;;;;;;;;;;4982979;28;37188;-76
2021/04/09 04:13:46;;;;;;;17.90;10.90;;;;;;;;;;5000689;28;40999;-76
2021/04/09 04:16:12;;;;;;;21.63;11.40;;;;;;;;;;4997878;28;38791;-76
2021/04/09 04:18:39;;;;;;;20.23;12.13;;;;;;;;;;5001787;28;38208;-76
2021/04/09 04:21:05;;;;;;;21.37;12.40;;;;;;;;;;4995819;28;37407;-78
2021/04/09 04:23:32;;;;;;;18.93;10.80;;;;;;;;;;4996703;28;37516;-77
2021/04/09 04:25:58;;;;;;;18.27;11.77;;;;;;;;;;4980364;28;38884;-76
2021/04/09 04:28:27;;;;;;;21.83;12.80;;;;;;;;;;4998575;28;38590;-76
2021/04/09 04:30:57;;;;;;;21.67;11.77;;;;;;;;;;4975390;28;38849;-77
2021/04/09 04:33:23;;;;;;;16.10;11.63;;;;;;;;;;4985705;28;38890;-76
2021/04/09 04:35:50;;;;;;;19.67;12.33;;;;;;;;;;4997476;28;37856;-77
2021/04/09 04:38:17;;;;;;;17.37;11.07;;;;;;;;;;4980878;28;39608;-76
2021/04/09 04:40:44;;;;;;;19.87;12.20;;;;;;;;;;4980896;28;36945;-76
2021/04/09 04:43:10;;;;;;;20.53;13.17;;;;;;;;;;4999469;28;40400;-76
2021/04/09 04:45:37;;;;;;;22.03;12.43;;;;;;;;;;4984851;28;40776;-76
2021/04/09 04:48:04;;;;;;;20.50;13.00;;;;;;;;;;4981114;28;39772;-76
2021/04/09 04:50:30;;;;;;;21.13;12.90;;;;;;;;;;4977894;28;37777;-77
2021/04/09 04:52:57;;;;;;;20.17;12.27;;;;;;;;;;4980776;28;39326;-77
2021/04/09 04:55:23;;;;;;;16.87;12.43;;;;;;;;;;4994884;28;39327;-76
2021/04/09 04:57:49;;;;;;;18.53;12.10;;;;;;;;;;4997348;28;38135;-76
2021/04/09 05:00:16;;;;;;;27.53;13.87;;;;;;;;;;4999587;28;39061;-76
2021/04/09 05:02:43;;;;;;;18.40;12.77;;;;;;;;;;4980518;28;39684;-76
2021/04/09 05:05:10;;;;;;;18.70;12.17;;;;;;;;;;4995534;28;37458;-76
2021/04/09 05:07:36;;;;;;;21.53;12.80;;;;;;;;;;4996935;28;38197;-76
2021/04/09 05:10:03;;;;;;;19.87;13.30;;;;;;;;;;4975401;28;37745;-76
2021/04/09 05:12:29;;;;;;;17.33;12.63;;;;;;;;;;4994068;28;39280;-76
2021/04/09 05:14:56;;;;;;;18.80;13.00;;;;;;;;;;4981116;28;39085;-76
2021/04/09 05:17:22;;;;;;;21.50;13.30;;;;;;;;;;4982623;28;38006;-76
2021/04/09 05:19:49;;;;;;;24.20;14.57;;;;;;;;;;4980777;28;37199;-76
2021/04/09 05:22:15;;;;;;;20.33;14.00;;;;;;;;;;4983812;28;39427;-76
2021/04/09 05:24:42;;;;;;;25.23;14.83;;;;;;;;;;4981253;28;38214;-76
2021/04/09 05:27:08;;;;;;;24.17;12.97;;;;;;;;;;4997328;28;39928;-77
2021/04/09 05:29:37;;;;;;;21.60;14.00;;;;;;;;;;4990139;28;37766;-77
2021/04/09 05:32:10;;;;;;;25.63;13.50;;;;;;;;;;4980895;28;39302;-75
2021/04/09 05:34:36;;;;;;;22.43;13.30;;;;;;;;;;5002847;28;39814;-76
2021/04/09 05:37:03;;;;;;;20.50;12.50;;;;;;;;;;4996365;28;39760;-76
2021/04/09 05:39:29;;;;;;;22.13;13.63;;;;;;;;;;4980115;28;37272;-76
2021/04/09 05:41:56;;;;;;;21.73;13.63;;;;;;;;;;5009480;28;39767;-76
2021/04/09 05:44:22;;;;;;;23.97;13.00;;;;;;;;;;4982783;28;37188;-76
2021/04/09 05:46:48;;;;;;;21.63;13.07;;;;;;;;;;5002215;28;38801;-76
2021/04/09 05:49:15;;;;;;;21.13;12.47;;;;;;;;;;4986454;28;38289;-77
2021/04/09 05:51:41;;;;;;;18.27;12.67;;;;;;;;;;4988722;28;38487;-77
2021/04/09 05:54:08;;;;;;;21.83;12.43;;;;;;;;;;5000873;28;40170;-78
2021/04/09 05:56:35;;;;;;;18.27;12.77;;;;;;;;;;4997299;28;39123;-76
2021/04/09 05:59:01;;;;;;;18.67;12.07;;;;;;;;;;4988690;28;37862;-75
2021/04/09 06:01:30;;;;;;;21.53;12.77;;;;;;;;;;4986969;28;39698;-77
2021/04/09 06:03:56;;;;;;;20.50;11.47;;;;;;;;;;4982393;28;38699;-76
2021/04/09 06:06:23;;;;;;;18.30;11.00;;;;;;;;;;5002619;28;39036;-76
2021/04/09 06:08:49;;;;;;;19.67;12.27;;;;;;;;;;5000637;28;37480;-76
2021/04/09 06:11:16;;;;;;;23.93;11.13;;;;;;;;;;5001414;28;40594;-76
2021/04/09 06:13:42;;;;;;;19.73;11.33;;;;;;;;;;4985972;28;36507;-77
2021/04/09 06:16:08;;;;;;;19.07;11.23;;;;;;;;;;4984672;28;38203;-75
2021/04/09 06:18:35;;;;;;;17.70;11.17;;;;;;;;;;4985568;28;38076;-76
2021/04/09 06:21:01;;;;;;;20.77;11.17;;;;;;;;;;4983403;28;40378;-76
2021/04/09 06:23:27;;;;;;;20.57;11.17;;;;;;;;;;4970466;28;46986;-76
2021/04/09 06:25:54;;;;;;;18.47;12.40;;;;;;;;;;4995727;28;36824;-76
2021/04/09 06:28:20;;;;;;;21.17;11.33;;;;;;;;;;4982522;28;37775;-76
2021/04/09 06:30:47;;;;;;;18.73;11.50;;;;;;;;;;4975367;28;39992;-76
2021/04/09 06:33:13;;;;;;;22.23;11.50;;;;;;;;;;4975800;28;39713;-76
2021/04/09 06:35:39;;;;;;;16.30;10.70;;;;;;;;;;4983300;28;36710;-76
2021/04/09 06:38:06;;;;;;;18.73;10.53;;;;;;;;;;4982166;28;37281;-77
2021/04/09 06:40:33;;;;;;;17.57;10.50;;;;;;;;;;4985450;28;37028;-76
2021/04/09 06:43:00;;;;;;;18.57;10.23;;;;;;;;;;4987288;28;39350;-77
2021/04/09 06:45:26;;;;;;;14.33;9.63;;;;;;;;;;4982694;28;38488;-77
2021/04/09 06:47:53;;;;;;;19.67;10.77;;;;;;;;;;5000199;28;37503;-76
2021/04/09 06:50:20;;;;;;;17.33;9.70;;;;;;;;;;5000781;28;40667;-77
2021/04/09 06:52:47;;;;;;;18.57;10.10;;;;;;;;;;4991803;28;39745;-76
2021/04/09 06:55:14;;;;;;;13.63;9.77;;;;;;;;;;5000693;28;38825;-76
2021/04/09 06:57:42;;;;;;;16.77;10.27;;;;;;;;;;5002451;28;36906;-76
2021/04/09 07:00:10;;;;;;;17.77;10.17;;;;;;;;;;4983587;28;39824;-76
2021/04/09 07:02:36;;;;;;;16.37;9.43;;;;;;;;;;5001440;28;39358;-76
2021/04/09 07:05:04;;;;;;;15.93;9.87;;;;;;;;;;5001491;28;38889;-76
2021/04/09 07:07:30;;;;;;;17.37;9.97;;;;;;;;;;4985863;28;36603;-77
2021/04/09 07:09:56;;;;;;;20.80;9.90;;;;;;;;;;4987589;28;39773;-77
2021/04/09 07:12:24;;;;;;;13.83;9.13;;;;;;;;;;5001445;28;37583;-76
2021/04/09 07:15:02;;;;;;;12.60;8.40;;;;;;;;;;5003871;28;38555;-76
2021/04/09 07:17:30;;;;;;;15.20;8.80;;;;;;;;;;4985997;28;48316;-77
2021/04/09 07:20:17;;;;;;;15.90;9.57;;;;;;;;;;5003223;28;39331;-76
2021/04/09 07:22:44;;;;;;;14.50;8.60;;;;;;;;;;4985771;28;49142;-77
2021/04/09 07:25:13;;;;;;;15.43;8.93;;;;;;;;;;4990381;28;39728;-76
2021/04/09 07:27:39;;;;;;;14.67;9.93;;;;;;;;;;4988552;28;38009;-77
2021/04/09 07:30:06;;;;;;;16.83;9.67;;;;;;;;;;4987604;28;38766;-76
2021/04/09 07:32:34;;;;;;;17.33;9.53;;;;;;;;;;4992979;28;40097;-77
2021/04/09 07:35:04;;;;;;;23.03;10.27;;;;;;;;;;4983696;28;38080;-76
2021/04/09 07:37:47;;;;;;;22.43;10.23;;;;;;;;;;4986791;28;48910;-75
2021/04/09 07:40:16;;;;;;;15.48;9.02;;;;;;;;;;4982860;28;39775;-76
2021/04/09 07:42:43;;;;;;;16.73;9.60;;;;;;;;;;4978044;28;39348;-76
2021/04/09 07:45:11;;;;;;;18.00;9.60;;;;;;;;;;4990121;28;38359;-76
2021/04/09 07:47:39;;;;;;;14.83;9.43;;;;;;;;;;5002583;28;36016;-76
2021/04/09 07:50:12;;;;;;;16.10;10.03;;;;;;;;;;4971045;28;39927;-75
2021/04/09 07:52:40;;;;;;;16.83;9.40;;;;;;;;;;4996340;28;39169;-75
2021/04/09 07:55:28;;;;;;;21.53;9.10;;;;;;;;;;5003182;28;38612;-76
2021/04/09 07:57:55;;;;;;;15.00;9.10;;;;;;;;;;5000988;28;37955;-76
2021/04/09 08:00:22;;;;;;;16.40;9.07;;;;;;;;;;5005822;28;39951;-77
2021/04/09 08:02:50;;;;;;;21.37;9.40;;;;;;;;;;4987147;28;39441;-77
2021/04/09 08:05:17;;;;;;;17.60;9.87;;;;;;;;;;5003764;28;37800;-75
2021/04/09 08:07:44;;;;;;;22.07;9.23;;;;;;;;;;4985926;28;37094;-77
2021/04/09 08:10:12;;;;;;;16.43;8.40;;;;;;;;;;4986442;28;39799;-76
2021/04/09 08:12:39;;;;;;;18.87;9.60;;;;;;;;;;4987020;28;38472;-76
2021/04/09 08:15:13;;;;;;;17.03;8.67;;;;;;;;;;4984907;28;38375;-77
2021/04/09 08:17:40;;;;;;;14.03;8.57;;;;;;;;;;5003289;28;37063;-77
2021/04/09 08:20:25;;;;;;;15.67;8.57;;;;;;;;;;5005582;28;39709;-77
2021/04/09 08:22:52;;;;;;;21.23;9.13;;;;;;;;;;5001046;28;39680;-76
2021/04/09 08:25:18;;;;;;;14.10;8.73;;;;;;;;;;4989697;28;39256;-76
2021/04/09 08:27:45;;;;;;;12.90;8.70;;;;;;;;;;4983118;28;36611;-77
2021/04/09 08:30:11;;;;;;;17.83;10.27;;;;;;;;;;4985477;28;38817;-76
2021/04/09 08:32:38;;;;;;;18.07;8.83;;;;;;;;;;4981851;28;39057;-76
2021/04/09 08:35:07;;;;;;;19.60;9.80;;;;;;;;;;4983477;28;38786;-76
2021/04/09 08:37:35;;;;;;;18.47;9.27;;;;;;;;;;4989035;28;37599;-76
2021/04/09 08:40:03;;;;;;;16.57;8.93;;;;;;;;;;4999560;28;38895;-76
2021/04/09 08:42:32;;;;;;;19.43;9.00;;;;;;;;;;4984237;28;38130;-77
2021/04/09 08:45:00;;;;;;;14.50;9.33;;;;;;;;;;4986476;28;38377;-76
2021/04/09 08:47:28;;;;;;;18.67;9.83;;;;;;;;;;4998910;28;37077;-76
2021/04/09 08:49:55;;;;;;;14.03;8.47;;;;;;;;;;5003358;28;38370;-77
2021/04/09 08:52:22;;;;;;;14.30;8.23;;;;;;;;;;4983763;28;38391;-76
2021/04/09 08:54:52;;;;;;;16.00;9.10;;;;;;;;;;4995341;28;37202;-77
2021/04/09 08:57:26;;;;;;;15.60;9.13;;;;;;;;;;4985577;28;36950;-76
2021/04/09 09:00:02;;;;;;;18.95;8.90;;;;;;;;;;4986629;28;40211;-76
2021/04/09 09:02:38;;;;;;;16.33;8.32;;;;;;;;;;4985531;28;49316;-76
2021/04/09 09:05:06;;;;;;;16.90;8.48;;;;;;;;;;4980549;28;38390;-76
2021/04/09 09:07:41;;;;;;;12.85;7.70;;;;;;;;;;4986238;28;38042;-78
2021/04/09 09:10:23;;;;;;;14.02;8.00;;;;;;;;;;4999269;28;40499;-78
2021/04/09 09:13:16;;;;;;;18.77;7.88;;;;;;;;;;4994383;28;39136;-78
2021/04/09 09:18:24;;;;;;;15.45;8.30;;;;;;;;;;4985761;28;36077;-78
2021/04/09 09:21:10;;;;;;;18.77;8.40;;;;;;;;;;5013728;28;38878;-77
2021/04/09 09:23:43;;;;;;;12.07;7.85;;;;;;;;;;4979987;28;49041;-76
2021/04/09 09:26:21;;;;;;;13.60;8.35;;;;;;;;;;5000594;28;37076;-76
2021/04/09 09:28:49;;;;;;;13.10;8.90;;;;;;;;;;5000563;28;37452;-77
2021/04/09 09:31:28;;;;;;;15.73;8.65;;;;;;;;;;4992950;28;39405;-77
2021/04/09 09:34:13;;;;;;;16.23;9.20;;;;;;;;;;4986476;28;39529;-77
2021/04/09 09:36:59;;;;;;;18.38;10.20;;;;;;;;;;4994702;28;47082;-77
2021/04/09 09:39:32;;;;;;;14.43;8.48;;;;;;;;;;4983807;28;37897;-77
2021/04/09 09:41:59;;;;;;;18.70;10.35;;;;;;;;;;4995324;28;39458;-77
2021/04/09 09:44:32;;;;;;;20.27;10.15;;;;;;;;;;4988112;28;38756;-77
2021/04/09 09:47:06;;;;;;;11.68;7.10;;;;;;;;;;4987146;28;38136;-76
2021/04/09 09:49:38;;;;;;;12.32;6.93;;;;;;;;;;4994885;28;49493;-76
2021/04/09 09:52:05;;;;;;;12.05;7.22;;;;;;;;;;5001773;28;38955;-76
2021/04/09 09:54:32;;;;;;;13.35;7.93;;;;;;;;;;4989668;28;39275;-76
2021/04/09 09:57:00;;;;;;;14.90;7.70;;;;;;;;;;4999596;28;37218;-76
2021/04/09 09:59:28;;;;;;;11.40;6.78;;;;;;;;;;4985958;28;37187;-76
2021/04/09 10:01:56;;;;;;;18.17;7.30;;;;;;;;;;4987325;28;39186;-76
2021/04/09 10:04:23;;;;;;;13.00;5.30;;;;;;;;;;4999338;28;35448;-76
2021/04/09 10:06:51;;;;;;;8.05;5.03;;;;;;;;;;4988376;28;38489;-77
2021/04/09 10:09:25;;;;;;;11.93;5.18;;;;;;;;;;4989989;28;37153;-78
2021/04/09 10:11:51;;;;;;;10.68;5.10;;;;;;;;;;5002902;28;39847;-78
2021/04/09 10:14:18;;;;;;;12.07;5.03;;;;;;;;;;4991522;28;38462;-77
2021/04/09 10:16:45;;;;;;;11.15;4.38;;;;;;;;;;4981672;28;38368;-77
2021/04/09 10:19:11;;;;;;;8.95;4.38;;;;;;;;;;5011362;28;35860;-77
2021/04/09 10:21:40;;;;;;;11.00;4.90;;;;;;;;;;5007065;28;37768;-77
2021/04/09 10:24:10;;;;;;;10.73;5.15;;;;;;;;;;5003926;28;38412;-77
2021/04/09 10:26:38;;;;;;;9.80;5.47;;;;;;;;;;4998960;28;36894;-78
2021/04/09 10:29:24;;;;;;;10.80;5.13;;;;;;;;;;5000178;28;35494;-78
2021/04/09 10:31:50;;;;;;;10.27;5.20;;;;;;;;;;5002213;28;47272;-78
2021/04/09 10:34:23;;;;;;;11.32;4.72;;;;;;;;;;4984512;28;38505;-77
2021/04/09 10:36:50;;;;;;;12.27;5.63;;;;;;;;;;5001880;28;37520;-76
2021/04/09 10:39:17;;;;;;;17.17;5.80;;;;;;;;;;5000083;28;36822;-76
2021/04/09 10:41:45;;;;;;;16.85;5.22;;;;;;;;;;4998444;28;37809;-77
2021/04/09 10:44:17;;;;;;;16.20;6.43;;;;;;;;;;4997661;28;37354;-76
2021/04/09 10:46:45;;;;;;;9.07;5.20;;;;;;;;;;4997967;28;38078;-77
2021/04/09 10:49:13;;;;;;;12.02;5.32;;;;;;;;;;4986576;28;37489;-76
2021/04/09 10:51:44;;;;;;;13.30;5.63;;;;;;;;;;4992678;28;39087;-76
2021/04/09 10:54:12;;;;;;;12.93;4.60;;;;;;;;;;4980995;28;40125;-77
2021/04/09 10:56:40;;;;;;;10.57;4.68;;;;;;;;;;5000758;28;37465;-76
2021/04/09 10:59:09;;;;;;;12.30;4.78;;;;;;;;;;4981587;28;36062;-79
2021/04/09 11:01:36;;;;;;;7.82;3.80;;;;;;;;;;4983357;28;38874;-79
2021/04/09 11:04:03;;;;;;;9.95;3.70;;;;;;;;;;5001779;28;37762;-78
2021/04/09 11:06:29;;;;;;;9.30;3.50;;;;;;;;;;4986223;28;38365;-79
2021/04/09 11:09:00;;;;;;;5.13;2.78;;;;;;;;;;4984934;28;36854;-80
2021/04/09 11:11:30;;;;;;;6.03;3.00;;;;;;;;;;5000537;28;38900;-78
2021/04/09 11:14:00;;;;;;;10.48;3.10;;;;;;;;;;4988802;28;38841;-78
2021/04/09 11:16:27;;;;;;;6.25;2.88;;;;;;;;;;4994217;28;38611;-78
2021/04/09 11:18:55;;;;;;;7.75;3.17;;;;;;;;;;4999381;28;35878;-78
2021/04/09 11:21:40;;;;;;;10.77;3.35;;;;;;;;;;4986472;28;39190;-78
2021/04/09 11:24:07;;;;;;;8.77;2.63;;;;;;;;;;4991869;28;38101;-79
2021/04/09 11:26:35;;;;;;;6.35;2.22;;;;;;;;;;4986988;28;39554;-79
2021/04/09 11:29:01;;;;;;;4.53;2.22;;;;;;;;;;5000545;28;37209;-77
2021/04/09 11:31:28;;;;;;;6.72;3.40;;;;;;;;;;5000994;28;39207;-79
2021/04/09 11:34:03;;;;;;;7.65;2.63;;;;;;;;;;4989434;28;38098;-77
2021/04/09 11:36:37;;;;;;;10.02;2.78;;;;;;;;;;4981207;28;48122;-76
2021/04/09 11:39:05;;;;;;;6.82;2.50;;;;;;;;;;4988714;28;37991;-76
2021/04/09 11:41:33;;;;;;;6.20;2.42;;;;;;;;;;5005198;28;38704;-79
2021/04/09 11:44:00;;;;;;;7.13;3.20;;;;;;;;;;4989083;28;38393;-76
2021/04/09 11:46:38;;;;;;;6.32;2.60;;;;;;;;;;4987480;28;38350;-77
2021/04/09 11:49:08;;;;;;;3.97;2.22;;;;;;;;;;4985624;28;35670;-78
2021/04/09 11:51:35;;;;;;;5.72;1.77;;;;;;;;;;4987718;28;38918;-79
2021/04/09 11:54:02;;;;;;;8.18;1.92;;;;;;;;;;4982574;28;39388;-78
2021/04/09 11:56:48;;;;;;;4.78;2.70;;;;;;;;;;4986485;28;48701;-79
2021/04/09 11:59:14;;;;;;;9.38;2.78;;;;;;;;;;4996359;28;37794;-78
2021/04/09 12:01:41;;;;;;;5.70;2.33;;;;;;;;;;4988707;28;38845;-78
2021/04/09 12:04:08;;;;;;;7.00;2.35;;;;;;;;;;4987822;28;38311;-78
2021/04/09 12:06:38;;;;;;;5.75;2.90;;;;;;;;;;4987750;28;38363;-78
2021/04/09 12:09:05;;;;;;;4.03;1.63;;;;;;;;;;5002522;28;37598;-77
2021/04/09 12:11:32;;;;;;;6.65;1.95;;;;;;;;;;4987601;28;39127;-77
2021/04/09 12:14:01;;;;;;;7.35;2.35;;;;;;;;;;4988481;28;39603;-78
2021/04/09 12:16:27;;;;;;;6.93;2.22;;;;;;;;;;4988680;28;48676;-78
2021/04/09 12:18:54;;;;;;;7.28;1.90;;;;;;;;;;5001270;28;38137;-78
2021/04/09 12:21:20;;;;;;;9.80;1.88;;;;;;;;;;4988475;28;39806;-77
2021/04/09 12:23:46;;;;;;;7.68;2.00;;;;;;;;;;5002251;28;38913;-77
2021/04/09 12:26:13;;;;;;;4.03;1.50;;;;;;;;;;4987584;28;37796;-77
2021/04/09 12:28:39;;;;;;;5.45;1.60;;;;;;;;;;4987992;28;38285;-78
2021/04/09 12:31:05;;;;;;;5.20;1.60;;;;;;;;;;5002109;28;40733;-78
2021/04/09 12:33:32;;;;;;;3.75;1.67;;;;;;;;;;4985819;28;38782;-77
2021/04/09 12:35:58;;;;;;;3.92;1.35;;;;;;;;;;4985862;28;38527;-78
2021/04/09 12:38:24;;;;;;;6.10;1.90;;;;;;;;;;4984610;28;38423;-78
2021/04/09 12:40:51;;;;;;;4.45;2.00;;;;;;;;;;5000599;28;39256;-78
2021/04/09 12:43:17;;;;;;;5.57;2.50;;;;;;;;;;4995113;28;39161;-78
2021/04/09 12:45:44;;;;;;;5.95;2.28;;;;;;;;;;4991298;28;38671;-77
2021/04/09 12:48:10;;;;;;;9.50;2.28;;;;;;;;;;4986426;28;37704;-77
2021/04/09 12:50:37;;;;;;;8.05;2.30;;;;;;;;;;4985654;28;40126;-78
2021/04/09 12:53:03;;;;;;;6.90;2.47;;;;;;;;;;4997757;28;37777;-77
2021/04/09 12:55:29;;;;;;;7.43;2.38;;;;;;;;;;5002617;28;39057;-78
2021/04/09 12:57:56;;;;;;;6.20;2.70;;;;;;;;;;4978586;28;36628;-78
2021/04/09 13:00:22;;;;;;;7.97;2.42;;;;;;;;;;4998353;28;39857;-79
2021/04/09 13:02:49;;;;;;;5.72;2.17;;;;;;;;;;4984702;28;39215;-79
2021/04/09 13:05:15;;;;;;;4.32;1.85;;;;;;;;;;4995688;28;38908;-79
2021/04/09 13:07:42;;;;;;;4.90;2.17;;;;;;;;;;4984122;28;37034;-79
2021/04/09 13:10:08;;;;;;;6.90;2.65;;;;;;;;;;4983886;28;37961;-80
2021/04/09 13:12:35;;;;;;;5.95;2.55;;;;;;;;;;4991932;28;39850;-79
2021/04/09 13:15:02;;;;;;;9.13;2.67;;;;;;;;;;4995522;28;38649;-78
2021/04/09 13:17:28;;;;;;;6.43;3.17;;;;;;;;;;4995541;28;37813;-78
2021/04/09 13:19:55;;;;;;;8.95;3.10;;;;;;;;;;5001812;28;38034;-78
2021/04/09 13:22:21;;;;;;;10.77;2.90;;;;;;;;;;4999600;28;38490;-78
2021/04/09 13:24:48;;;;;;;6.35;2.50;;;;;;;;;;4987020;28;38022;-77
2021/04/09 13:27:15;;;;;;;12.93;5.78;;;;;;;;;;4999493;28;35962;-78
2021/04/09 13:29:44;;;;;;;12.15;4.00;;;;;;;;;;4985718;28;39839;-78
2021/04/09 13:32:11;;;;;;;8.68;3.45;;;;;;;;;;4997656;28;38450;-78
2021/04/09 13:34:37;;;;;;;5.13;2.60;;;;;;;;;;4985504;28;39268;-78
2021/04/09 13:37:04;;;;;;;7.28;2.90;;;;;;;;;;4998556;28;35391;-78
2021/04/09 13:39:30;;;;;;;6.72;2.95;;;;;;;;;;5000725;28;39592;-78
2021/04/09 13:41:57;;;;;;;9.52;3.20;;;;;;;;;;4980712;28;38296;-78
2021/04/09 13:44:23;;;;;;;5.45;2.67;;;;;;;;;;4980215;28;38689;-78
2021/04/09 13:46:49;;;;;;;7.15;3.17;;;;;;;;;;4986694;28;36253;-78
2021/04/09 13:49:17;;;;;;;7.70;2.90;;;;;;;;;;4973209;28;39781;-78
2021/04/09 13:51:43;;;;;;;11.65;3.55;;;;;;;;;;4975540;28;39399;-78
2021/04/09 13:54:10;;;;;;;6.53;2.92;;;;;;;;;;4996974;28;40931;-77
2021/04/09 13:56:36;;;;;;;6.22;3.20;;;;;;;;;;5003932;28;36940;-78
2021/04/09 13:59:03;;;;;;;9.10;3.10;;;;;;;;;;4984688;28;38860;-78
2021/04/09 14:01:29;;;;;;;6.68;2.95;;;;;;;;;;4993718;28;40023;-78
2021/04/09 14:03:55;;;;;;;4.93;2.90;;;;;;;;;;4983801;28;38199;-78
2021/04/09 14:06:22;;;;;;;6.22;3.28;;;;;;;;;;4984751;28;37919;-78
2021/04/09 14:08:48;;;;;;;8.98;3.25;;;;;;;;;;4984263;28;38982;-78
2021/04/09 14:11:14;;;;;;;4.95;2.50;;;;;;;;;;4984449;28;39054;-78
2021/04/09 14:13:42;;;;;;;6.70;2.33;;;;;;;;;;4983907;28;38687;-78
2021/04/09 14:16:09;;;;;;;7.28;2.05;;;;;;;;;;4986632;28;37302;-78
2021/04/09 14:18:35;;;;;;;4.65;1.98;;;;;;;;;;4992377;28;38890;-78
2021/04/09 14:21:01;;;;;;;3.53;1.98;;;;;;;;;;4996347;28;38964;-78
2021/04/09 14:23:28;;;;;;;3.13;1.58;;;;;;;;;;4984073;28;40798;-78
2021/04/09 14:25:54;;;;;;;3.60;1.40;;;;;;;;;;4983730;28;38857;-79
2021/04/09 14:28:21;;;;;;;2.13;1.00;;;;;;;;;;4986770;28;40460;-78
2021/04/09 14:30:47;;;;;;;2.42;1.30;;;;;;;;;;4996932;28;37015;-78
2021/04/09 14:33:13;;;;;;;6.10;1.50;;;;;;;;;;5003002;28;39871;-78
2021/04/09 14:35:40;;;;;;;5.07;2.08;;;;;;;;;;4991103;28;38806;-78
2021/04/09 14:38:06;;;;;;;5.25;1.90;;;;;;;;;;5020757;28;40970;-78